Time;durP1;ratioP1;P1;durP2;ratioP2;P2;SDS_P1;SDS_P2;PMS_P1;PMS_P2;Temp;Humidity;BMP_temperature;BMP_pressure;BME280_temperature;BME280_humidity;BME280_pressure;Samples;Min_cycle;Max_cycle;Signal;HPM_P1;HPM_P2
2022/06/16 00:01:19;;;;;;;4.50;2.90;;;;;;;22.98;45.78;101510.81;5073094;28;20412;-75
2022/06/16 00:03:46;;;;;;;3.47;2.92;;;;;;;22.94;46.00;101508.81;5061131;28;20411;-72
2022/06/16 00:06:12;;;;;;;3.58;2.85;;;;;;;22.93;45.92;101516.09;5061496;28;20425;-75
2022/06/16 00:08:39;;;;;;;5.88;3.08;;;;;;;22.91;45.90;101512.81;5065575;28;20869;-75
2022/06/16 00:11:19;;;;;;;4.60;3.00;;;;;;;22.86;45.67;101509.97;5075255;28;20537;-77
2022/06/16 00:13:48;;;;;;;4.07;3.00;;;;;;;22.79;45.90;101509.25;5055749;28;20411;-78
2022/06/16 00:16:15;;;;;;;4.50;2.88;;;;;;;22.75;45.93;101500.78;5062674;28;20427;-72
2022/06/16 00:19:02;;;;;;;3.20;2.90;;;;;;;22.71;46.09;101499.63;5084843;27;20407;-78
2022/06/16 00:21:29;;;;;;;4.03;2.90;;;;;;;22.68;46.10;101505.47;5063824;28;20950;-74
2022/06/16 00:23:56;;;;;;;4.47;2.95;;;;;;;22.66;46.33;101494.06;5065003;28;20437;-78
2022/06/16 00:26:25;;;;;;;3.53;3.00;;;;;;;22.64;46.41;101496.19;5059935;28;20421;-74
2022/06/16 00:28:53;;;;;;;3.30;2.83;;;;;;;22.59;46.28;101496.06;5071187;28;20498;-74
2022/06/16 00:31:21;;;;;;;4.22;3.00;;;;;;;22.55;46.40;101495.69;5058922;28;20808;-75
2022/06/16 00:33:49;;;;;;;3.45;2.78;;;;;;;22.52;46.16;101499.66;5070643;28;20978;-76
2022/06/16 00:36:18;;;;;;;3.25;2.80;;;;;;;22.51;46.25;101502.63;5069217;28;20446;-74
2022/06/16 00:38:45;;;;;;;3.47;3.00;;;;;;;22.51;46.33;101499.91;5063017;28;20510;-77
2022/06/16 00:41:12;;;;;;;3.30;3.00;;;;;;;22.49;46.52;101502.84;5063004;28;20460;-79
2022/06/16 00:43:40;;;;;;;3.58;2.90;;;;;;;22.47;46.43;101504.09;5081700;28;20414;-80
2022/06/16 00:46:10;;;;;;;4.03;3.00;;;;;;;22.46;46.46;101505.19;5075404;28;21001;-75
2022/06/16 00:48:42;;;;;;;3.53;3.03;;;;;;;22.44;46.48;101507.28;5070243;28;20451;-77
2022/06/16 00:51:15;;;;;;;4.53;3.30;;;;;;;22.41;46.42;101495.06;5060712;28;20420;-74
2022/06/16 00:53:45;;;;;;;7.63;3.00;;;;;;;22.39;46.58;101507.16;5056855;28;20501;-79
2022/06/16 00:56:16;;;;;;;8.73;3.03;;;;;;;22.36;46.34;101502.19;5066012;28;20455;-75
2022/06/16 00:58:47;;;;;;;5.03;3.10;;;;;;;22.32;46.47;101502.66;5059650;28;20444;-73
2022/06/16 01:01:15;;;;;;;4.28;2.97;;;;;;;22.30;46.54;101503.94;5052783;28;20414;-74
2022/06/16 01:06:28;;;;;;;4.05;2.85;;;;;;;22.24;46.55;101505.66;5053023;28;20491;-74
2022/06/16 01:09:00;;;;;;;4.25;3.00;;;;;;;22.22;46.64;101504.22;5066287;28;20453;-73
2022/06/16 01:14:38;;;;;;;5.10;3.20;;;;;;;22.13;46.59;101509.94;5064229;28;20794;-79
2022/06/16 01:17:15;;;;;;;4.57;2.90;;;;;;;22.11;46.62;101511.22;5079760;28;20508;-75
2022/06/16 01:20:03;;;;;;;4.70;3.00;;;;;;;22.04;46.80;101511.31;5077500;28;21022;-77
2022/06/16 01:22:45;;;;;;;3.30;2.80;;;;;;;21.99;47.14;101505.78;5058932;28;20508;-74
2022/06/16 01:25:26;;;;;;;11.20;8.70;;;;;;;21.95;47.25;101502.69;5069445;28;20539;-76
2022/06/16 01:29:06;;;;;;;3.33;2.90;;;;;;;21.92;47.12;101503.16;5106857;27;20401;-79
2022/06/16 01:31:39;;;;;;;3.88;3.10;;;;;;;21.89;47.19;101498.19;5103890;28;20416;-76
2022/06/16 01:34:18;;;;;;;4.47;3.40;;;;;;;21.86;47.18;101495.97;5098269;28;20455;-76
2022/06/16 01:36:52;;;;;;;6.53;3.25;;;;;;;21.84;47.23;101500.78;5079521;28;20459;-79
2022/06/16 01:39:27;;;;;;;4.75;3.33;;;;;;;21.82;47.50;101499.31;5078160;28;20852;-80
2022/06/16 01:43:44;;;;;;;3.92;3.55;;;;;;;21.80;47.55;101493.34;5095345;27;20826;-76
2022/06/16 01:46:18;;;;;;;3.53;3.15;;;;;;;21.79;47.46;101488.97;5066919;28;20504;-73
2022/06/16 01:49:25;;;;;;;3.95;3.00;;;;;;;21.78;47.57;101488.16;5069944;28;20408;-80
2022/06/16 01:51:58;;;;;;;4.10;3.15;;;;;;;21.77;47.51;101491.94;5047539;28;20500;-75
2022/06/16 01:54:30;;;;;;;3.65;3.10;;;;;;;21.75;47.33;101483.19;5060498;28;20935;-76
2022/06/16 01:57:01;;;;;;;3.80;3.30;;;;;;;21.74;47.08;101484.28;5060170;28;20536;-78
2022/06/16 01:59:34;;;;;;;4.32;3.10;;;;;;;21.70;47.31;101485.78;5054899;28;20984;-79
2022/06/16 02:02:06;;;;;;;3.38;2.90;;;;;;;21.69;47.24;101482.22;5052629;28;20874;-81
2022/06/16 02:04:39;;;;;;;3.15;2.90;;;;;;;21.66;47.28;101489.97;5050059;28;20481;-80
2022/06/16 02:07:11;;;;;;;5.28;2.80;;;;;;;21.60;47.29;101489.00;5052589;28;20502;-74
2022/06/16 02:09:43;;;;;;;4.85;3.00;;;;;;;21.52;47.21;101495.50;5044516;28;20494;-75
2022/06/16 02:12:55;;;;;;;3.15;2.80;;;;;;;21.51;46.98;101493.84;5046313;28;20418;-79
2022/06/16 02:15:10;;;;;;;4.30;2.90;;;;;;;21.49;46.87;101497.84;5044486;28;20930;-73
2022/06/16 02:17:37;;;;;;;3.13;2.83;;;;;;;21.42;47.07;101494.34;5045786;28;20500;-78
2022/06/16 02:20:06;;;;;;;4.60;3.03;;;;;;;21.26;47.31;101499.25;5044731;28;20508;-77
2022/06/16 02:22:34;;;;;;;3.92;2.97;;;;;;;21.23;47.35;101498.88;5045054;28;20497;-77
2022/06/16 02:25:02;;;;;;;3.70;2.90;;;;;;;21.25;47.33;101486.84;5045444;28;20440;-75
2022/06/16 02:27:29;;;;;;;3.20;2.90;;;;;;;21.28;47.24;101486.38;5049183;28;20465;-74
2022/06/16 02:29:56;;;;;;;4.47;2.85;;;;;;;21.26;47.57;101495.75;5047231;28;20453;-76
2022/06/16 02:32:37;;;;;;;5.28;3.05;;;;;;;21.28;47.36;101497.16;5045252;28;20492;-74
2022/06/16 02:35:17;;;;;;;4.38;3.20;;;;;;;21.30;47.32;101497.78;5044869;28;20508;-73
2022/06/16 02:37:57;;;;;;;3.25;2.90;;;;;;;21.30;47.38;101500.47;5045262;28;20402;-75
2022/06/16 02:40:40;;;;;;;3.88;3.00;;;;;;;21.30;47.34;101499.63;5045747;28;20460;-77
2022/06/16 02:43:20;;;;;;;3.35;3.05;;;;;;;21.29;47.35;101506.09;5044072;28;20420;-78
2022/06/16 02:45:58;;;;;;;3.50;2.88;;;;;;;21.29;47.41;101509.59;5044715;28;20449;-74
2022/06/16 02:48:33;;;;;;;4.22;3.10;;;;;;;21.28;47.47;101504.44;5044894;28;20440;-73
2022/06/16 02:51:09;;;;;;;3.92;3.03;;;;;;;21.26;47.37;101501.94;5044167;28;20978;-78
2022/06/16 02:53:42;;;;;;;3.40;3.10;;;;;;;21.26;47.23;101501.13;5045128;28;20449;-72
2022/06/16 02:56:13;;;;;;;3.92;3.03;;;;;;;21.27;47.22;101503.63;5045055;28;20423;-77
2022/06/16 02:58:44;;;;;;;3.97;3.08;;;;;;;21.29;47.34;101508.78;5043045;28;20871;-74
2022/06/16 03:01:12;;;;;;;5.45;2.90;;;;;;;21.33;47.40;101502.72;5031206;28;20418;-80
2022/06/16 03:03:39;;;;;;;3.30;3.00;;;;;;;21.38;47.13;101502.88;5032131;28;20509;-77
2022/06/16 03:06:10;;;;;;;4.57;3.17;;;;;;;21.45;46.95;101502.84;5031676;28;20422;-78
2022/06/16 03:08:41;;;;;;;4.45;3.17;;;;;;;21.55;46.79;101518.50;5027992;28;20434;-76
2022/06/16 03:11:08;;;;;;;5.38;3.50;;;;;;;21.64;46.79;101510.94;5031450;28;20593;-78
2022/06/16 03:13:35;;;;;;;4.05;3.40;;;;;;;21.70;46.55;101502.78;5031343;28;20466;-74
2022/06/16 03:16:04;;;;;;;4.00;3.30;;;;;;;21.76;46.35;101509.16;5032091;28;20418;-75
2022/06/16 03:18:31;;;;;;;4.15;3.25;;;;;;;21.80;46.24;101513.03;5030890;28;20947;-70
2022/06/16 03:20:58;;;;;;;3.95;3.50;;;;;;;21.86;46.07;101514.00;5030656;28;20422;-73
2022/06/16 03:23:26;;;;;;;5.83;3.30;;;;;;;21.90;46.20;101510.66;5030810;28;20423;-77
2022/06/16 03:25:53;;;;;;;5.18;3.60;;;;;;;21.95;46.10;101507.28;5031837;28;20494;-76
2022/06/16 03:28:20;;;;;;;7.33;3.33;;;;;;;22.03;46.07;101506.13;5030728;28;20517;-74
2022/06/16 03:30:47;;;;;;;4.75;3.70;;;;;;;22.09;45.68;101507.91;5030760;28;20450;-76
2022/06/16 03:33:14;;;;;;;4.97;3.78;;;;;;;22.15;45.77;101504.31;5031347;28;20418;-74
2022/06/16 03:35:43;;;;;;;4.85;4.00;;;;;;;22.24;45.49;101508.34;5031822;28;20445;-74
2022/06/16 03:38:12;;;;;;;3.92;3.15;;;;;;;22.30;45.24;101512.88;5031732;28;20418;-75
2022/06/16 03:40:41;;;;;;;5.63;3.50;;;;;;;22.37;44.97;101506.56;5031577;28;20415;-74
2022/06/16 03:43:08;;;;;;;4.43;3.45;;;;;;;22.41;44.94;101508.56;5031908;28;20489;-78
2022/06/16 03:45:36;;;;;;;4.75;3.45;;;;;;;22.46;44.71;101502.47;5031345;28;20903;-74
2022/06/16 03:48:03;;;;;;;5.88;3.83;;;;;;;22.51;44.81;101506.13;5030453;28;20436;-78
2022/06/16 03:50:30;;;;;;;5.18;3.90;;;;;;;22.60;44.44;101508.50;5029925;28;20985;-73
2022/06/16 03:52:57;;;;;;;7.05;4.10;;;;;;;22.69;44.63;101512.53;5030599;28;20418;-75
2022/06/16 03:55:25;;;;;;;7.03;3.80;;;;;;;22.78;44.32;101504.88;5031632;28;20446;-76
2022/06/16 03:57:54;;;;;;;4.53;4.07;;;;;;;22.88;44.10;101514.06;5027458;28;20430;-80
2022/06/16 04:00:23;;;;;;;5.00;3.80;;;;;;;22.97;43.86;101513.75;5030237;28;20920;-75
2022/06/16 04:03:59;;;;;;;6.53;3.97;;;;;;;23.05;43.91;101513.44;5030186;28;20505;-71
2022/06/16 04:05:40;;;;;;;8.95;4.38;;;;;;;23.17;43.76;101510.75;5030331;28;20804;-74
2022/06/16 04:08:08;;;;;;;5.10;3.90;;;;;;;23.27;43.14;101517.22;5030002;28;20517;-73
2022/06/16 04:10:35;;;;;;;6.95;4.25;;;;;;;23.39;43.23;101513.66;5030266;28;20419;-74
2022/06/16 04:13:05;;;;;;;6.80;3.92;;;;;;;23.51;42.91;101513.66;5029549;28;20505;-82
2022/06/16 04:15:33;;;;;;;5.82;3.70;;;;;;;23.63;42.77;101515.31;5028978;28;20912;-76
2022/06/16 04:18:00;;;;;;;5.43;4.13;;;;;;;23.78;42.27;101516.69;5030770;28;20418;-73
2022/06/16 04:20:27;;;;;;;4.70;3.83;;;;;;;23.90;41.98;101519.41;5029896;28;20449;-80
2022/06/16 04:22:54;;;;;;;4.97;4.10;;;;;;;24.06;41.59;101524.06;5029385;28;20497;-78
2022/06/16 04:25:23;;;;;;;14.65;4.63;;;;;;;24.22;41.32;101517.06;5030041;28;20588;-76
2022/06/16 04:27:50;;;;;;;8.75;4.20;;;;;;;24.44;40.79;101528.03;5028848;28;20493;-71
2022/06/16 04:30:19;;;;;;;4.72;3.78;;;;;;;24.70;40.68;101528.53;5029561;28;21026;-67
2022/06/16 04:32:46;;;;;;;4.05;3.67;;;;;;;24.91;40.09;101516.94;5029179;28;20497;-75
2022/06/16 04:35:12;;;;;;;5.05;4.05;;;;;;;25.06;39.94;101519.06;5030170;28;20500;-78
2022/06/16 04:37:39;;;;;;;5.70;3.90;;;;;;;25.21;39.61;101523.94;5030218;28;20414;-79
2022/06/16 04:40:09;;;;;;;6.78;4.68;;;;;;;25.37;39.27;101514.13;5028540;28;20883;-74
2022/06/16 04:42:36;;;;;;;7.22;6.47;;;;;;;25.47;39.15;101522.44;5029141;28;20465;-77
2022/06/16 04:45:04;;;;;;;7.25;4.72;;;;;;;25.59;38.97;101522.34;5023010;28;20987;-73
2022/06/16 04:47:32;;;;;;;6.28;4.45;;;;;;;25.74;38.75;101517.09;5023846;28;20419;-71
2022/06/16 04:49:59;;;;;;;6.00;4.13;;;;;;;25.90;38.66;101520.00;5025489;28;20430;-71
2022/06/16 04:52:26;;;;;;;5.03;3.78;;;;;;;26.04;38.48;101521.28;5023549;28;20439;-75
2022/06/16 04:54:53;;;;;;;5.30;3.70;;;;;;;26.18;38.10;101526.31;5024717;28;20945;-74
2022/06/16 04:57:21;;;;;;;6.13;4.20;;;;;;;26.28;37.93;101521.00;5023312;28;20423;-78
2022/06/16 04:59:48;;;;;;;7.15;4.38;;;;;;;26.43;37.82;101523.84;5016778;28;20431;-77
2022/06/16 05:02:15;;;;;;;7.57;4.40;;;;;;;26.58;37.62;101522.38;5021439;28;20461;-71
2022/06/16 05:04:44;;;;;;;6.28;4.72;;;;;;;26.73;37.19;101527.19;5023339;28;20507;-74
2022/06/16 05:07:11;;;;;;;9.57;6.40;;;;;;;26.86;36.98;101524.00;5024829;28;20848;-71
2022/06/16 05:09:38;;;;;;;8.07;6.95;;;;;;;27.02;36.63;101516.78;5019923;28;20462;-74
2022/06/16 05:12:06;;;;;;;10.23;6.77;;;;;;;27.19;36.45;101520.19;5020256;28;21465;-73
2022/06/16 05:14:33;;;;;;;5.95;5.25;;;;;;;27.35;36.20;101523.84;5023198;28;21341;-74
2022/06/16 05:17:02;;;;;;;6.72;5.68;;;;;;;27.52;35.86;101518.22;5019393;28;20501;-74
2022/06/16 05:19:31;;;;;;;8.05;6.15;;;;;;;27.68;35.97;101513.69;5022843;28;20934;-71
2022/06/16 05:22:01;;;;;;;9.60;6.65;;;;;;;27.86;35.31;101520.56;5025631;28;20482;-76
2022/06/16 05:24:28;;;;;;;7.60;5.90;;;;;;;27.98;35.38;101520.34;5016400;28;20422;-75
2022/06/16 05:26:55;;;;;;;8.77;5.53;;;;;;;28.14;35.54;101515.75;5027676;28;20429;-73
2022/06/16 05:29:22;;;;;;;6.28;5.68;;;;;;;28.30;34.54;101522.06;5018360;28;20435;-75
2022/06/16 05:31:49;;;;;;;8.37;5.50;;;;;;;28.44;34.66;101527.84;5014322;28;20444;-79
2022/06/16 05:34:17;;;;;;;6.00;5.07;;;;;;;28.65;34.34;101528.69;5023627;28;20498;-73
2022/06/16 05:36:45;;;;;;;6.63;4.70;;;;;;;28.83;33.71;101525.44;5024188;28;20420;-71
2022/06/16 05:39:14;;;;;;;6.50;4.50;;;;;;;29.07;33.10;101527.59;5024849;28;20420;-73
2022/06/16 05:41:42;;;;;;;5.28;4.13;;;;;;;29.31;32.41;101528.66;5018336;28;20502;-72
2022/06/16 05:44:09;;;;;;;6.13;4.50;;;;;;;29.60;32.25;101528.03;5023193;28;20427;-72
2022/06/16 05:46:37;;;;;;;8.30;4.47;;;;;;;29.91;31.87;101525.22;5023799;28;20904;-72
2022/06/16 05:49:04;;;;;;;5.40;4.07;;;;;;;30.24;31.48;101529.13;5024837;28;20440;-73
2022/06/16 05:51:31;;;;;;;5.90;3.40;;;;;;;30.55;30.17;101522.66;5022520;28;20502;-74
2022/06/16 05:53:58;;;;;;;7.40;3.50;;;;;;;30.90;29.92;101523.47;5011373;28;20503;-72
2022/06/16 05:56:27;;;;;;;6.05;4.30;;;;;;;31.25;29.72;101520.41;5015335;28;20987;-74
2022/06/16 05:58:53;;;;;;;5.93;3.30;;;;;;;31.59;28.57;101524.97;5028615;28;20493;-74
2022/06/16 06:01:20;;;;;;;5.10;3.45;;;;;;;31.91;28.32;101514.44;5026922;28;20988;-75
2022/06/16 06:03:47;;;;;;;3.42;3.13;;;;;;;32.11;28.23;101518.88;5027973;28;20506;-75
2022/06/16 06:06:14;;;;;;;3.67;3.00;;;;;;;32.20;28.54;101517.09;5023931;28;20407;-76
2022/06/16 06:17:04;;;;;;;5.90;3.63;;;;;;;34.00;26.17;101525.66;5009131;28;20407;-74
2022/06/16 06:19:31;;;;;;;3.30;3.00;;;;;;;34.38;25.52;101522.59;5025359;28;20415;-75
2022/06/16 06:22:06;;;;;;;5.33;3.10;;;;;;;34.61;24.93;101520.66;5017153;28;20504;-73
2022/06/16 06:24:35;;;;;;;4.72;2.90;;;;;;;34.40;24.99;101525.84;5027228;28;20414;-73
2022/06/16 06:27:06;;;;;;;4.57;3.30;;;;;;;34.58;24.88;101528.75;5021647;28;20788;-74
2022/06/16 06:29:33;;;;;;;3.40;2.90;;;;;;;35.08;24.12;101530.50;5021741;28;21003;-75
2022/06/16 06:32:01;;;;;;;3.97;2.80;;;;;;;35.52;23.36;101532.31;5028685;28;20497;-73
2022/06/16 06:34:28;;;;;;;3.70;2.70;;;;;;;35.94;22.76;101521.75;5023715;28;20507;-71
2022/06/16 06:36:55;;;;;;;4.70;2.73;;;;;;;36.20;22.47;101529.25;5023813;28;20496;-74
2022/06/16 06:39:23;;;;;;;6.80;3.35;;;;;;;36.58;22.45;101522.22;5018281;28;20402;-78
2022/06/16 06:41:50;;;;;;;4.22;3.20;;;;;;;37.09;21.92;101526.00;5027149;28;20411;-77
2022/06/16 06:44:18;;;;;;;6.30;3.10;;;;;;;37.62;21.00;101523.81;5027477;28;20447;-77
2022/06/16 06:46:45;;;;;;;3.03;2.72;;;;;;;37.90;21.05;101528.84;5031689;28;20496;-80
2022/06/16 06:49:13;;;;;;;3.03;2.67;;;;;;;37.73;20.67;101522.31;5019787;28;20530;-79
2022/06/16 06:51:40;;;;;;;4.30;2.92;;;;;;;38.13;21.06;101529.38;5015500;28;20851;-71
2022/06/16 06:54:07;;;;;;;5.07;2.97;;;;;;;38.20;20.65;101524.91;5026996;28;20424;-77
2022/06/16 06:56:34;;;;;;;3.22;2.90;;;;;;;37.91;20.48;101520.22;5014337;28;20426;-74
2022/06/16 06:59:05;;;;;;;3.85;2.90;;;;;;;37.61;21.35;101513.88;5023567;28;20506;-78
2022/06/16 07:01:34;;;;;;;4.18;2.92;;;;;;;37.11;21.37;101516.25;5029794;28;20417;-78
2022/06/16 07:04:02;;;;;;;3.40;2.70;;;;;;;36.46;22.12;101512.63;5027606;28;20837;-74
2022/06/16 07:06:29;;;;;;;17.00;6.70;;;;;;;36.21;22.85;101519.81;5021692;28;20499;-75
2022/06/16 07:08:56;;;;;;;10.03;4.53;;;;;;;36.01;22.88;101517.69;5024933;28;20515;-75
2022/06/16 07:11:24;;;;;;;3.88;2.90;;;;;;;35.77;22.65;101513.44;5019803;28;20503;-75
2022/06/16 07:13:51;;;;;;;3.20;2.83;;;;;;;35.50;23.19;101523.56;5016252;28;20785;-76
2022/06/16 07:16:18;;;;;;;3.67;2.92;;;;;;;35.30;23.28;101518.66;5026372;28;20439;-74
2022/06/16 07:18:47;;;;;;;3.80;2.90;;;;;;;34.96;23.92;101514.56;5014034;28;20416;-73
2022/06/16 07:21:15;;;;;;;4.38;3.08;;;;;;;34.47;24.53;101520.72;5017487;28;20796;-73
2022/06/16 07:23:42;;;;;;;6.97;3.50;;;;;;;34.37;25.46;101514.66;5031005;28;20430;-77
2022/06/16 07:26:11;;;;;;;4.70;3.20;;;;;;;34.16;25.72;101526.13;5024048;28;20422;-73
2022/06/16 07:28:38;;;;;;;5.88;3.63;;;;;;;33.91;26.24;101516.50;5018846;28;20850;-75
2022/06/16 07:31:05;;;;;;;7.13;3.83;;;;;;;33.74;26.93;101525.38;5021552;28;20493;-71
2022/06/16 07:33:32;;;;;;;4.60;3.42;;;;;;;33.31;27.56;101526.50;5030540;28;20425;-73
2022/06/16 07:36:00;;;;;;;5.33;3.47;;;;;;;32.45;28.09;101515.88;5021998;28;20505;-76
2022/06/16 07:38:28;;;;;;;4.85;3.53;;;;;;;31.85;29.16;101524.66;5028608;28;20411;-72
2022/06/16 07:41:31;;;;;;;5.40;3.23;;;;;;;31.60;29.68;101518.41;5021112;28;20906;-76
2022/06/16 07:43:42;;;;;;;6.77;3.57;;;;;;;31.60;30.07;101517.56;5012983;28;20411;-73
2022/06/16 07:46:10;;;;;;;7.13;3.50;;;;;;;31.58;29.96;101515.13;5017070;28;20991;-75
2022/06/16 07:48:37;;;;;;;7.65;3.63;;;;;;;31.56;30.03;101522.81;5030631;28;20445;-70
2022/06/16 07:51:06;;;;;;;4.22;3.10;;;;;;;31.37;30.09;101524.69;5022929;28;20458;-72
2022/06/16 07:53:33;;;;;;;5.35;3.33;;;;;;;30.96;30.55;101520.44;5017546;28;20983;-73
2022/06/16 07:56:00;;;;;;;3.78;3.20;;;;;;;30.69;30.73;101520.91;5023821;28;20451;-75
2022/06/16 07:58:31;;;;;;;4.68;3.40;;;;;;;29.97;31.65;101512.34;5022660;28;20425;-73
2022/06/16 08:00:58;;;;;;;3.92;3.10;;;;;;;29.92;32.09;101518.66;5025720;28;20424;-71
2022/06/16 08:03:28;;;;;;;7.10;3.33;;;;;;;29.80;32.51;101512.69;5027362;28;20505;-74
2022/06/16 08:05:56;;;;;;;5.90;3.30;;;;;;;29.77;32.69;101526.94;5023538;28;20420;-71
2022/06/16 08:08:26;;;;;;;4.45;3.17;;;;;;;29.73;32.66;101521.97;5021680;28;20430;-72
2022/06/16 08:10:53;;;;;;;7.28;3.70;;;;;;;29.56;32.67;101524.22;5016193;28;21059;-71
2022/06/16 08:13:21;;;;;;;5.72;3.13;;;;;;;29.41;33.05;101521.56;5014177;28;20502;-73
2022/06/16 08:15:50;;;;;;;6.50;3.30;;;;;;;29.15;33.18;101522.44;5027364;28;20418;-72
2022/06/16 08:18:20;;;;;;;5.55;3.10;;;;;;;28.91;33.66;101535.78;5028493;28;20441;-72
2022/06/16 08:20:47;;;;;;;4.32;3.20;;;;;;;28.64;33.92;101522.41;5016045;28;20428;-71
2022/06/16 08:23:14;;;;;;;4.10;2.53;;;;;;;28.79;34.13;101524.31;5018769;28;20465;-74
2022/06/16 08:25:44;;;;;;;5.30;2.78;;;;;;;28.62;33.11;101527.34;5026466;28;20500;-70
2022/06/16 08:28:14;;;;;;;5.47;3.00;;;;;;;28.76;33.46;101528.44;5017033;28;20422;-72
2022/06/16 08:30:44;;;;;;;5.95;3.00;;;;;;;28.75;33.29;101523.25;5027231;28;20441;-74
2022/06/16 08:33:14;;;;;;;5.40;3.40;;;;;;;28.59;33.80;101527.88;5027234;28;20491;-73
2022/06/16 08:35:42;;;;;;;6.57;3.53;;;;;;;28.52;34.37;101535.47;5016292;28;20427;-73
2022/06/16 08:38:09;;;;;;;5.40;3.13;;;;;;;28.59;34.26;101522.41;5017631;28;20810;-75
2022/06/16 08:40:44;;;;;;;4.07;2.60;;;;;;;28.55;34.38;101519.41;5014271;28;20831;-72
2022/06/16 08:43:23;;;;;;;4.20;2.55;;;;;;;28.42;33.21;101525.38;5019840;28;20940;-73
2022/06/16 08:45:54;;;;;;;5.65;2.60;;;;;;;28.63;33.71;101520.78;5027419;28;20988;-74
2022/06/16 08:48:35;;;;;;;5.22;2.40;;;;;;;28.64;33.03;101516.16;5019832;28;20984;-72
2022/06/16 08:51:11;;;;;;;4.72;2.80;;;;;;;28.71;33.75;101513.97;5014641;28;20517;-73
2022/06/16 08:54:01;;;;;;;5.93;3.10;;;;;;;28.49;33.32;101520.47;5023595;28;20498;-76
2022/06/16 08:56:38;;;;;;;4.50;3.03;;;;;;;28.71;33.77;101519.44;5025767;28;20497;-76
2022/06/16 08:59:13;;;;;;;4.60;2.70;;;;;;;28.79;33.71;101505.22;5025245;28;20965;-73
2022/06/16 09:01:44;;;;;;;4.53;2.80;;;;;;;28.96;33.08;101513.13;5027586;28;20489;-73
2022/06/16 09:04:19;;;;;;;3.67;2.63;;;;;;;29.07;33.63;101500.31;5027391;28;20515;-74
2022/06/16 09:06:55;;;;;;;4.68;2.72;;;;;;;29.37;32.86;101502.19;5030138;28;20501;-74
2022/06/16 09:12:35;;;;;;;3.10;2.70;;;;;;;29.28;32.55;101499.19;5029713;28;20401;-77
2022/06/16 09:15:13;;;;;;;2.90;2.60;;;;;;;29.52;32.26;101504.84;5029579;28;20422;-72
2022/06/16 09:17:53;;;;;;;3.15;2.78;;;;;;;29.62;32.25;101490.34;5029512;28;20494;-77
2022/06/16 09:20:28;;;;;;;3.50;3.03;;;;;;;29.38;32.82;101501.06;5030019;28;20414;-75
2022/06/16 09:23:09;;;;;;;3.50;3.17;;;;;;;29.06;33.07;101491.28;5029504;28;20493;-75
2022/06/16 09:25:55;;;;;;;4.00;3.07;;;;;;;29.27;33.03;101492.09;5029136;28;20912;-77
2022/06/16 09:28:31;;;;;;;4.63;2.75;;;;;;;29.51;32.83;101488.72;5030093;28;20410;-72
2022/06/16 09:31:01;;;;;;;4.75;2.80;;;;;;;29.21;32.80;101484.16;5025605;28;20812;-73
2022/06/16 09:33:34;;;;;;;5.15;2.78;;;;;;;29.33;32.63;101480.06;5029513;28;20500;-71
2022/06/16 09:36:08;;;;;;;3.08;2.65;;;;;;;29.51;32.07;101475.91;5028040;28;20426;-71
2022/06/16 09:38:40;;;;;;;3.55;2.67;;;;;;;29.54;32.12;101474.53;5027986;28;20419;-76
2022/06/16 09:43:59;;;;;;;4.20;2.60;;;;;;;29.35;32.17;101471.56;5028833;28;20417;-76
2022/06/16 09:46:32;;;;;;;4.55;2.85;;;;;;;29.35;32.27;101450.56;5029070;28;20943;-74
2022/06/16 09:49:05;;;;;;;4.85;2.67;;;;;;;29.50;32.51;101452.41;5028889;28;20440;-72
2022/06/16 09:51:36;;;;;;;3.45;2.60;;;;;;;29.64;32.51;101452.63;5027869;28;20893;-73
2022/06/16 09:54:10;;;;;;;3.05;2.60;;;;;;;29.38;32.85;101456.56;5028545;28;20414;-74
2022/06/16 09:56:44;;;;;;;3.03;2.45;;;;;;;29.26;32.79;101456.84;5028551;28;20971;-73
2022/06/16 09:59:15;;;;;;;4.18;2.53;;;;;;;29.59;32.28;101446.38;5023170;28;20510;-77
2022/06/16 10:01:47;;;;;;;4.73;2.80;;;;;;;29.71;32.37;101444.94;5021096;28;20856;-75
2022/06/16 10:04:15;;;;;;;3.85;2.53;;;;;;;29.60;31.52;101448.00;5023742;28;20499;-72
2022/06/16 10:06:53;;;;;;;2.50;2.10;;;;;;;29.62;30.45;101446.63;5020605;28;20498;-74
2022/06/16 10:09:26;;;;;;;2.30;2.05;;;;;;;29.82;29.36;101436.69;5029457;28;20414;-78
2022/06/16 10:12:02;;;;;;;2.80;2.38;;;;;;;29.59;31.06;101438.97;5032910;28;20414;-73
2022/06/16 10:14:38;;;;;;;4.38;2.55;;;;;;;29.92;31.14;101437.44;5032507;28;20847;-75
2022/06/16 10:17:08;;;;;;;3.17;2.63;;;;;;;30.03;30.63;101437.38;5029147;28;20438;-77
2022/06/16 10:19:39;;;;;;;2.53;2.33;;;;;;;30.06;31.10;101442.31;5032362;28;20413;-74
2022/06/16 10:22:08;;;;;;;4.68;2.50;;;;;;;30.08;30.15;101434.63;5032936;28;20410;-74
2022/06/16 10:24:39;;;;;;;3.35;2.67;;;;;;;29.93;30.54;101430.91;5035622;28;20453;-76
2022/06/16 10:27:07;;;;;;;4.30;2.70;;;;;;;30.15;31.38;101426.13;5033044;28;20449;-73
2022/06/16 10:29:37;;;;;;;3.63;2.22;;;;;;;30.09;30.25;101431.63;5032231;28;20448;-74
2022/06/16 10:32:15;;;;;;;2.45;2.10;;;;;;;29.96;30.04;101425.97;5041799;28;20453;-73
2022/06/16 10:34:42;;;;;;;3.83;2.17;;;;;;;30.07;29.78;101431.09;5031449;28;20410;-71
2022/06/16 10:37:14;;;;;;;3.47;2.10;;;;;;;30.20;29.11;101431.53;5041060;28;20418;-75
2022/06/16 10:39:45;;;;;;;4.07;2.30;;;;;;;30.03;29.61;101430.00;5032618;28;20442;-76
2022/06/16 10:42:23;;;;;;;4.15;2.35;;;;;;;30.23;30.02;101425.47;5027658;28;20941;-74
2022/06/16 10:44:59;;;;;;;5.27;2.23;;;;;;;30.29;29.18;101418.88;5028471;28;20967;-74
2022/06/16 10:47:32;;;;;;;4.43;2.30;;;;;;;30.16;29.56;101425.00;5032225;28;20843;-74
2022/06/16 10:51:10;;;;;;;2.53;2.25;;;;;;;30.22;29.42;101430.16;5062163;28;20469;-71
2022/06/16 10:53:41;;;;;;;3.03;2.40;;;;;;;30.43;29.67;101421.78;5046383;28;20420;-74
2022/06/16 10:56:16;;;;;;;3.40;2.25;;;;;;;30.09;29.16;101420.69;5043042;28;20946;-72
2022/06/16 10:58:48;;;;;;;2.20;2.00;;;;;;;29.70;29.48;101424.16;5045963;28;20424;-70
2022/06/16 11:01:19;;;;;;;4.95;2.60;;;;;;;29.70;29.84;101421.44;5047633;28;20449;-71
2022/06/16 11:03:48;;;;;;;4.28;2.10;;;;;;;29.71;29.80;101416.78;5047759;28;20500;-71
2022/06/16 11:06:19;;;;;;;3.40;2.10;;;;;;;29.69;30.12;101416.25;5042201;28;20427;-70
2022/06/16 11:08:50;;;;;;;2.90;2.25;;;;;;;30.02;30.15;101409.25;5045793;28;20441;-72
2022/06/16 11:11:31;;;;;;;3.78;2.10;;;;;;;30.21;29.16;101406.63;5046272;28;20493;-67
2022/06/16 11:14:02;;;;;;;2.85;2.28;;;;;;;30.37;29.42;101412.00;5054567;28;20411;-74
2022/06/16 11:16:32;;;;;;;3.13;2.42;;;;;;;30.44;28.75;101402.34;5042895;28;20914;-73
2022/06/16 11:19:02;;;;;;;3.63;1.92;;;;;;;30.28;28.06;101414.50;5047182;28;20428;-72
2022/06/16 11:21:33;;;;;;;3.85;2.15;;;;;;;30.09;27.56;101412.47;5041770;28;20502;-66
2022/06/16 11:24:04;;;;;;;2.88;2.00;;;;;;;30.15;28.03;101410.50;5050482;28;20483;-73
2022/06/16 11:26:33;;;;;;;2.10;1.90;;;;;;;30.30;27.29;101404.91;5041720;28;20447;-71
2022/06/16 11:29:03;;;;;;;3.28;2.03;;;;;;;30.37;27.94;101398.34;5055389;28;20482;-73
2022/06/16 11:31:42;;;;;;;2.50;1.80;;;;;;;30.45;27.00;101392.22;5048302;28;20815;-74
2022/06/16 11:34:15;;;;;;;2.53;2.08;;;;;;;30.49;27.75;101396.03;5055419;28;20516;-72
2022/06/16 11:36:57;;;;;;;2.97;2.08;;;;;;;30.24;27.13;101395.13;5045502;28;20416;-73
2022/06/16 11:39:33;;;;;;;2.90;2.10;;;;;;;30.47;27.96;101395.50;5061218;28;20873;-70
2022/06/16 11:42:00;;;;;;;4.23;2.10;;;;;;;30.58;27.94;101388.03;5029338;28;20451;-68
2022/06/16 11:44:47;;;;;;;3.67;2.30;;;;;;;30.43;28.09;101384.34;5029152;28;20448;-73
2022/06/16 11:47:27;;;;;;;2.90;1.88;;;;;;;30.38;27.65;101395.31;5029869;28;20540;-73
2022/06/16 11:50:03;;;;;;;2.95;1.90;;;;;;;30.44;26.59;101387.88;5053093;28;20515;-74
2022/06/16 11:52:39;;;;;;;7.68;3.33;;;;;;;30.62;27.88;101391.81;5059702;28;20438;-74
2022/06/16 11:55:24;;;;;;;2.80;2.20;;;;;;;30.72;27.02;101379.94;5068485;28;20474;-70
2022/06/16 11:57:59;;;;;;;4.63;2.20;;;;;;;30.66;26.57;101382.72;5068363;28;20456;-77
2022/06/16 12:00:33;;;;;;;9.77;5.20;;;;;;;30.53;27.20;101375.19;5063456;28;20500;-71
2022/06/16 12:03:22;;;;;;;6.97;3.00;;;;;;;30.60;27.32;101378.41;5053523;28;20452;-72
2022/06/16 12:06:05;;;;;;;18.27;9.05;;;;;;;30.58;27.55;101375.16;5057632;28;20454;-72